sensor_id;sensor_type;location;lat;lon;timestamp;P1;durP1;ratioP1;P2;durP2;ratioP2
68680;SDS011;55836;49.858;6.756;2022-09-28T00:00:52;10.97;;;2.60;;
68680;SDS011;55836;49.858;6.756;2022-09-28T00:03:18;5.90;;;2.77;;
68680;SDS011;55836;49.858;6.756;2022-09-28T00:05:45;6.50;;;3.07;;
68680;SDS011;55836;49.858;6.756;2022-09-28T00:08:11;6.17;;;2.30;;
68680;SDS011;55836;49.858;6.756;2022-09-28T00:10:38;5.57;;;2.80;;
68680;SDS011;55836;49.858;6.756;2022-09-28T00:13:05;6.07;;;2.27;;
68680;SDS011;55836;49.858;6.756;2022-09-28T00:15:32;7.07;;;2.80;;
68680;SDS011;55836;49.858;6.756;2022-09-28T00:17:58;6.90;;;3.10;;
68680;SDS011;55836;49.858;6.756;2022-09-28T00:20:24;9.30;;;3.60;;
68680;SDS011;55836;49.858;6.756;2022-09-28T00:22:50;10.77;;;3.03;;
68680;SDS011;55836;49.858;6.756;2022-09-28T00:25:16;6.97;;;2.70;;
68680;SDS011;55836;49.858;6.756;2022-09-28T00:27:42;7.63;;;2.47;;
68680;SDS011;55836;49.858;6.756;2022-09-28T00:30:09;6.70;;;2.90;;
68680;SDS011;55836;49.858;6.756;2022-09-28T00:32:38;7.77;;;2.67;;
68680;SDS011;55836;49.858;6.756;2022-09-28T00:35:04;6.80;;;2.73;;
68680;SDS011;55836;49.858;6.756;2022-09-28T00:37:30;7.43;;;2.40;;
68680;SDS011;55836;49.858;6.756;2022-09-28T00:39:56;4.73;;;2.40;;
68680;SDS011;55836;49.858;6.756;2022-09-28T00:42:23;5.67;;;2.57;;
68680;SDS011;55836;49.858;6.756;2022-09-28T00:44:50;4.17;;;2.83;;
68680;SDS011;55836;49.858;6.756;2022-09-28T00:52:48;5.47;;;2.37;;
68680;SDS011;55836;49.858;6.756;2022-09-28T00:55:16;5.90;;;2.97;;
68680;SDS011;55836;49.858;6.756;2022-09-28T00:57:43;7.50;;;2.53;;
68680;SDS011;55836;49.858;6.756;2022-09-28T01:00:10;10.00;;;2.93;;
68680;SDS011;55836;49.858;6.756;2022-09-28T01:02:37;4.00;;;2.70;;
68680;SDS011;55836;49.858;6.756;2022-09-28T01:05:04;6.53;;;2.70;;
68680;SDS011;55836;49.858;6.756;2022-09-28T01:07:30;10.60;;;3.03;;
68680;SDS011;55836;49.858;6.756;2022-09-28T01:09:56;4.27;;;2.97;;
68680;SDS011;55836;49.858;6.756;2022-09-28T01:12:26;4.87;;;2.50;;
68680;SDS011;55836;49.858;6.756;2022-09-28T01:14:53;7.60;;;2.93;;
68680;SDS011;55836;49.858;6.756;2022-09-28T01:18:21;7.37;;;2.63;;
68680;SDS011;55836;49.858;6.756;2022-09-28T01:28:28;8.33;;;2.77;;
68680;SDS011;55836;49.858;6.756;2022-09-28T01:33:24;6.97;;;3.33;;
68680;SDS011;55836;49.858;6.756;2022-09-28T01:35:54;5.63;;;2.50;;
68680;SDS011;55836;49.858;6.756;2022-09-28T01:38:26;7.37;;;2.80;;
68680;SDS011;55836;49.858;6.756;2022-09-28T01:40:54;8.27;;;2.90;;
68680;SDS011;55836;49.858;6.756;2022-09-28T01:43:25;6.23;;;2.23;;
68680;SDS011;55836;49.858;6.756;2022-09-28T01:45:53;6.90;;;2.70;;
68680;SDS011;55836;49.858;6.756;2022-09-28T01:48:22;4.10;;;2.50;;
68680;SDS011;55836;49.858;6.756;2022-09-28T01:50:51;4.57;;;2.30;;
68680;SDS011;55836;49.858;6.756;2022-09-28T01:53:23;3.93;;;2.23;;
68680;SDS011;55836;49.858;6.756;2022-09-28T01:55:51;4.83;;;3.03;;
68680;SDS011;55836;49.858;6.756;2022-09-28T01:58:24;6.20;;;2.37;;
68680;SDS011;55836;49.858;6.756;2022-09-28T02:00:55;9.73;;;2.70;;
68680;SDS011;55836;49.858;6.756;2022-09-28T02:03:23;6.97;;;2.70;;
68680;SDS011;55836;49.858;6.756;2022-09-28T02:05:51;5.13;;;2.50;;
68680;SDS011;55836;49.858;6.756;2022-09-28T02:10:47;5.87;;;2.60;;
68680;SDS011;55836;49.858;6.756;2022-09-28T02:13:18;8.70;;;2.73;;
68680;SDS011;55836;49.858;6.756;2022-09-28T02:15:48;4.20;;;2.93;;
68680;SDS011;55836;49.858;6.756;2022-09-28T02:18:15;7.57;;;3.37;;
68680;SDS011;55836;49.858;6.756;2022-09-28T02:20:43;7.40;;;2.83;;
68680;SDS011;55836;49.858;6.756;2022-09-28T02:23:11;5.53;;;2.67;;
68680;SDS011;55836;49.858;6.756;2022-09-28T02:28:04;7.93;;;2.30;;
68680;SDS011;55836;49.858;6.756;2022-09-28T02:30:32;7.77;;;2.50;;
68680;SDS011;55836;49.858;6.756;2022-09-28T02:33:17;9.43;;;2.87;;
68680;SDS011;55836;49.858;6.756;2022-09-28T02:35:44;4.43;;;2.50;;
68680;SDS011;55836;49.858;6.756;2022-09-28T02:38:11;6.07;;;2.20;;
68680;SDS011;55836;49.858;6.756;2022-09-28T02:40:37;7.20;;;2.67;;
68680;SDS011;55836;49.858;6.756;2022-09-28T02:48:27;6.17;;;2.60;;
68680;SDS011;55836;49.858;6.756;2022-09-28T02:56:16;8.47;;;2.70;;
68680;SDS011;55836;49.858;6.756;2022-09-28T03:03:49;4.90;;;2.33;;
68680;SDS011;55836;49.858;6.756;2022-09-28T03:06:42;7.37;;;2.50;;
68680;SDS011;55836;49.858;6.756;2022-09-28T03:11:48;4.60;;;2.33;;
68680;SDS011;55836;49.858;6.756;2022-09-28T03:14:15;4.67;;;2.37;;
68680;SDS011;55836;49.858;6.756;2022-09-28T03:16:42;6.80;;;2.80;;
68680;SDS011;55836;49.858;6.756;2022-09-28T03:19:12;8.47;;;2.40;;
68680;SDS011;55836;49.858;6.756;2022-09-28T03:21:38;7.03;;;2.70;;
68680;SDS011;55836;49.858;6.756;2022-09-28T03:24:05;8.20;;;2.87;;
68680;SDS011;55836;49.858;6.756;2022-09-28T03:26:31;8.60;;;3.03;;
68680;SDS011;55836;49.858;6.756;2022-09-28T03:28:57;6.63;;;2.50;;
68680;SDS011;55836;49.858;6.756;2022-09-28T03:31:23;7.87;;;3.20;;
68680;SDS011;55836;49.858;6.756;2022-09-28T03:33:50;4.03;;;2.63;;
68680;SDS011;55836;49.858;6.756;2022-09-28T03:36:16;5.43;;;1.97;;
68680;SDS011;55836;49.858;6.756;2022-09-28T03:38:42;5.47;;;2.23;;
68680;SDS011;55836;49.858;6.756;2022-09-28T03:41:08;6.47;;;2.10;;
68680;SDS011;55836;49.858;6.756;2022-09-28T03:43:34;4.87;;;2.10;;
68680;SDS011;55836;49.858;6.756;2022-09-28T03:46:00;8.63;;;2.83;;
68680;SDS011;55836;49.858;6.756;2022-09-28T03:48:28;6.97;;;2.13;;
68680;SDS011;55836;49.858;6.756;2022-09-28T03:50:55;5.37;;;2.40;;
68680;SDS011;55836;49.858;6.756;2022-09-28T03:53:21;6.30;;;3.03;;
68680;SDS011;55836;49.858;6.756;2022-09-28T03:55:48;5.17;;;2.83;;
68680;SDS011;55836;49.858;6.756;2022-09-28T03:58:15;11.33;;;2.63;;
68680;SDS011;55836;49.858;6.756;2022-09-28T04:00:41;7.20;;;2.87;;
68680;SDS011;55836;49.858;6.756;2022-09-28T04:03:07;8.57;;;2.83;;
68680;SDS011;55836;49.858;6.756;2022-09-28T04:05:33;6.40;;;3.00;;
68680;SDS011;55836;49.858;6.756;2022-09-28T04:07:59;5.40;;;2.93;;
68680;SDS011;55836;49.858;6.756;2022-09-28T04:10:25;8.40;;;3.13;;
68680;SDS011;55836;49.858;6.756;2022-09-28T04:12:55;5.97;;;2.60;;
68680;SDS011;55836;49.858;6.756;2022-09-28T04:15:22;7.17;;;2.73;;
68680;SDS011;55836;49.858;6.756;2022-09-28T04:17:48;7.37;;;2.87;;
68680;SDS011;55836;49.858;6.756;2022-09-28T04:20:14;8.23;;;2.90;;
68680;SDS011;55836;49.858;6.756;2022-09-28T04:22:40;5.43;;;3.07;;
68680;SDS011;55836;49.858;6.756;2022-09-28T04:25:07;5.93;;;3.17;;
68680;SDS011;55836;49.858;6.756;2022-09-28T04:27:33;6.53;;;3.10;;
68680;SDS011;55836;49.858;6.756;2022-09-28T04:30:17;7.67;;;2.90;;
68680;SDS011;55836;49.858;6.756;2022-09-28T04:32:46;4.47;;;2.87;;
68680;SDS011;55836;49.858;6.756;2022-09-28T04:35:13;6.87;;;3.00;;
68680;SDS011;55836;49.858;6.756;2022-09-28T04:37:39;5.90;;;3.23;;
68680;SDS011;55836;49.858;6.756;2022-09-28T04:40:05;4.40;;;2.93;;
68680;SDS011;55836;49.858;6.756;2022-09-28T04:42:31;5.80;;;3.10;;
68680;SDS011;55836;49.858;6.756;2022-09-28T04:44:57;7.10;;;3.73;;
68680;SDS011;55836;49.858;6.756;2022-09-28T04:47:25;6.20;;;3.40;;
68680;SDS011;55836;49.858;6.756;2022-09-28T04:49:51;6.93;;;3.43;;
68680;SDS011;55836;49.858;6.756;2022-09-28T04:52:17;11.23;;;3.60;;
68680;SDS011;55836;49.858;6.756;2022-09-28T04:54:43;4.73;;;3.00;;
68680;SDS011;55836;49.858;6.756;2022-09-28T04:57:09;7.43;;;3.23;;
68680;SDS011;55836;49.858;6.756;2022-09-28T04:59:35;7.63;;;4.00;;
68680;SDS011;55836;49.858;6.756;2022-09-28T05:02:02;7.63;;;3.10;;
68680;SDS011;55836;49.858;6.756;2022-09-28T05:04:28;4.87;;;3.40;;
68680;SDS011;55836;49.858;6.756;2022-09-28T05:06:55;7.33;;;3.93;;
68680;SDS011;55836;49.858;6.756;2022-09-28T05:09:21;6.10;;;3.73;;
68680;SDS011;55836;49.858;6.756;2022-09-28T05:11:50;6.80;;;3.97;;
68680;SDS011;55836;49.858;6.756;2022-09-28T05:14:17;7.37;;;4.20;;
68680;SDS011;55836;49.858;6.756;2022-09-28T05:16:45;6.73;;;3.70;;
68680;SDS011;55836;49.858;6.756;2022-09-28T05:19:11;7.50;;;3.63;;
68680;SDS011;55836;49.858;6.756;2022-09-28T05:21:37;9.33;;;3.90;;
68680;SDS011;55836;49.858;6.756;2022-09-28T05:24:04;6.43;;;3.87;;
68680;SDS011;55836;49.858;6.756;2022-09-28T05:26:31;7.40;;;4.37;;
68680;SDS011;55836;49.858;6.756;2022-09-28T05:28:57;9.03;;;4.40;;
68680;SDS011;55836;49.858;6.756;2022-09-28T05:31:24;9.07;;;3.70;;
68680;SDS011;55836;49.858;6.756;2022-09-28T05:33:51;7.07;;;4.03;;
68680;SDS011;55836;49.858;6.756;2022-09-28T05:36:17;5.87;;;3.47;;
68680;SDS011;55836;49.858;6.756;2022-09-28T05:38:44;7.00;;;3.40;;
68680;SDS011;55836;49.858;6.756;2022-09-28T05:41:10;8.23;;;4.00;;
68680;SDS011;55836;49.858;6.756;2022-09-28T05:43:36;9.77;;;3.97;;
68680;SDS011;55836;49.858;6.756;2022-09-28T05:46:03;6.43;;;4.63;;
68680;SDS011;55836;49.858;6.756;2022-09-28T05:48:29;6.93;;;4.23;;
68680;SDS011;55836;49.858;6.756;2022-09-28T05:50:56;10.00;;;4.27;;
68680;SDS011;55836;49.858;6.756;2022-09-28T05:53:23;8.03;;;4.17;;
68680;SDS011;55836;49.858;6.756;2022-09-28T05:55:49;8.27;;;4.70;;
68680;SDS011;55836;49.858;6.756;2022-09-28T05:58:15;7.83;;;5.53;;
68680;SDS011;55836;49.858;6.756;2022-09-28T06:00:41;7.53;;;4.47;;
68680;SDS011;55836;49.858;6.756;2022-09-28T06:03:09;5.53;;;4.40;;
68680;SDS011;55836;49.858;6.756;2022-09-28T06:05:36;7.13;;;4.40;;
68680;SDS011;55836;49.858;6.756;2022-09-28T06:08:03;5.93;;;4.57;;
68680;SDS011;55836;49.858;6.756;2022-09-28T06:10:30;10.50;;;4.43;;
68680;SDS011;55836;49.858;6.756;2022-09-28T06:12:57;9.00;;;4.43;;
68680;SDS011;55836;49.858;6.756;2022-09-28T06:15:24;6.43;;;3.57;;
68680;SDS011;55836;49.858;6.756;2022-09-28T06:17:57;6.63;;;3.60;;
68680;SDS011;55836;49.858;6.756;2022-09-28T06:20:24;5.27;;;3.90;;
68680;SDS011;55836;49.858;6.756;2022-09-28T06:22:51;6.47;;;4.63;;
68680;SDS011;55836;49.858;6.756;2022-09-28T06:25:17;6.43;;;4.13;;
68680;SDS011;55836;49.858;6.756;2022-09-28T06:27:52;13.87;;;5.03;;
68680;SDS011;55836;49.858;6.756;2022-09-28T06:30:18;11.50;;;5.50;;
68680;SDS011;55836;49.858;6.756;2022-09-28T06:32:44;11.37;;;5.70;;
68680;SDS011;55836;49.858;6.756;2022-09-28T06:35:10;8.40;;;5.47;;
68680;SDS011;55836;49.858;6.756;2022-09-28T06:37:37;8.40;;;5.97;;
68680;SDS011;55836;49.858;6.756;2022-09-28T06:40:03;9.00;;;5.60;;
68680;SDS011;55836;49.858;6.756;2022-09-28T06:42:30;12.40;;;5.90;;
68680;SDS011;55836;49.858;6.756;2022-09-28T06:44:56;7.60;;;5.57;;
68680;SDS011;55836;49.858;6.756;2022-09-28T06:47:23;7.07;;;5.93;;
68680;SDS011;55836;49.858;6.756;2022-09-28T06:49:49;9.37;;;6.67;;
68680;SDS011;55836;49.858;6.756;2022-09-28T06:52:19;8.93;;;5.77;;
68680;SDS011;55836;49.858;6.756;2022-09-28T06:54:45;10.57;;;5.57;;
68680;SDS011;55836;49.858;6.756;2022-09-28T06:57:11;10.60;;;5.63;;
68680;SDS011;55836;49.858;6.756;2022-09-28T06:59:37;8.63;;;5.70;;
68680;SDS011;55836;49.858;6.756;2022-09-28T07:02:03;7.97;;;5.43;;
68680;SDS011;55836;49.858;6.756;2022-09-28T07:04:29;8.00;;;5.93;;
68680;SDS011;55836;49.858;6.756;2022-09-28T07:06:56;13.37;;;6.27;;
68680;SDS011;55836;49.858;6.756;2022-09-28T07:09:23;6.33;;;5.70;;
68680;SDS011;55836;49.858;6.756;2022-09-28T07:11:49;9.80;;;6.10;;
68680;SDS011;55836;49.858;6.756;2022-09-28T07:14:16;13.53;;;6.40;;
68680;SDS011;55836;49.858;6.756;2022-09-28T07:16:44;12.07;;;6.43;;
68680;SDS011;55836;49.858;6.756;2022-09-28T07:19:10;15.27;;;6.50;;
68680;SDS011;55836;49.858;6.756;2022-09-28T07:21:36;9.33;;;6.30;;
68680;SDS011;55836;49.858;6.756;2022-09-28T07:24:02;10.30;;;6.60;;
68680;SDS011;55836;49.858;6.756;2022-09-28T07:26:29;14.30;;;6.40;;
68680;SDS011;55836;49.858;6.756;2022-09-28T07:28:57;12.23;;;7.10;;
68680;SDS011;55836;49.858;6.756;2022-09-28T07:31:23;10.40;;;6.87;;
68680;SDS011;55836;49.858;6.756;2022-09-28T07:33:49;9.67;;;6.90;;
68680;SDS011;55836;49.858;6.756;2022-09-28T07:36:15;9.53;;;6.47;;
68680;SDS011;55836;49.858;6.756;2022-09-28T07:38:42;10.23;;;6.40;;
68680;SDS011;55836;49.858;6.756;2022-09-28T07:41:08;9.93;;;5.90;;
68680;SDS011;55836;49.858;6.756;2022-09-28T07:43:38;8.47;;;5.30;;
68680;SDS011;55836;49.858;6.756;2022-09-28T07:46:04;11.07;;;5.83;;
68680;SDS011;55836;49.858;6.756;2022-09-28T07:48:36;7.37;;;5.93;;
68680;SDS011;55836;49.858;6.756;2022-09-28T07:51:02;7.10;;;4.87;;
68680;SDS011;55836;49.858;6.756;2022-09-28T07:53:29;10.30;;;5.67;;
68680;SDS011;55836;49.858;6.756;2022-09-28T07:55:56;7.90;;;4.67;;
68680;SDS011;55836;49.858;6.756;2022-09-28T07:58:45;7.37;;;4.70;;
68680;SDS011;55836;49.858;6.756;2022-09-28T08:01:11;6.17;;;4.67;;
68680;SDS011;55836;49.858;6.756;2022-09-28T08:03:40;9.70;;;4.97;;
68680;SDS011;55836;49.858;6.756;2022-09-28T08:06:11;8.90;;;5.17;;
68680;SDS011;55836;49.858;6.756;2022-09-28T08:08:38;7.73;;;4.17;;
68680;SDS011;55836;49.858;6.756;2022-09-28T08:11:12;7.57;;;4.67;;
68680;SDS011;55836;49.858;6.756;2022-09-28T08:13:39;9.00;;;5.63;;
68680;SDS011;55836;49.858;6.756;2022-09-28T08:16:05;6.77;;;5.50;;
68680;SDS011;55836;49.858;6.756;2022-09-28T08:18:35;8.27;;;5.47;;
68680;SDS011;55836;49.858;6.756;2022-09-28T08:21:02;6.60;;;4.37;;
68680;SDS011;55836;49.858;6.756;2022-09-28T08:23:46;6.27;;;4.43;;
68680;SDS011;55836;49.858;6.756;2022-09-28T08:26:13;5.83;;;4.97;;
68680;SDS011;55836;49.858;6.756;2022-09-28T08:28:39;8.37;;;4.60;;
68680;SDS011;55836;49.858;6.756;2022-09-28T08:31:06;5.90;;;4.00;;
68680;SDS011;55836;49.858;6.756;2022-09-28T08:33:32;6.87;;;4.70;;
68680;SDS011;55836;49.858;6.756;2022-09-28T08:35:59;6.57;;;4.10;;
68680;SDS011;55836;49.858;6.756;2022-09-28T08:38:26;6.27;;;4.30;;
68680;SDS011;55836;49.858;6.756;2022-09-28T08:43:26;9.40;;;4.50;;
68680;SDS011;55836;49.858;6.756;2022-09-28T08:45:55;7.87;;;4.37;;
68680;SDS011;55836;49.858;6.756;2022-09-28T08:48:24;6.57;;;4.37;;
68680;SDS011;55836;49.858;6.756;2022-09-28T08:51:27;5.03;;;4.17;;
68680;SDS011;55836;49.858;6.756;2022-09-28T08:54:02;6.37;;;4.00;;
68680;SDS011;55836;49.858;6.756;2022-09-28T08:56:46;3.87;;;3.53;;
68680;SDS011;55836;49.858;6.756;2022-09-28T08:59:14;6.87;;;3.60;;
68680;SDS011;55836;49.858;6.756;2022-09-28T09:01:45;6.10;;;4.23;;
68680;SDS011;55836;49.858;6.756;2022-09-28T09:04:12;6.13;;;3.47;;
68680;SDS011;55836;49.858;6.756;2022-09-28T09:06:43;7.07;;;4.17;;
68680;SDS011;55836;49.858;6.756;2022-09-28T09:24:40;5.67;;;3.27;;
68680;SDS011;55836;49.858;6.756;2022-09-28T09:27:24;8.03;;;3.60;;
68680;SDS011;55836;49.858;6.756;2022-09-28T09:30:13;6.57;;;4.13;;
68680;SDS011;55836;49.858;6.756;2022-09-28T09:33:05;4.23;;;2.43;;
68680;SDS011;55836;49.858;6.756;2022-09-28T09:35:53;4.83;;;2.90;;
68680;SDS011;55836;49.858;6.756;2022-09-28T09:46:18;3.73;;;2.50;;
68680;SDS011;55836;49.858;6.756;2022-09-28T09:48:54;4.97;;;3.50;;
68680;SDS011;55836;49.858;6.756;2022-09-28T09:54:15;4.17;;;2.97;;
68680;SDS011;55836;49.858;6.756;2022-09-28T09:57:00;5.40;;;3.03;;
68680;SDS011;55836;49.858;6.756;2022-09-28T09:59:31;3.97;;;2.90;;
68680;SDS011;55836;49.858;6.756;2022-09-28T10:02:02;3.73;;;2.80;;
68680;SDS011;55836;49.858;6.756;2022-09-28T10:04:36;4.23;;;2.50;;
68680;SDS011;55836;49.858;6.756;2022-09-28T10:07:05;4.47;;;2.30;;
68680;SDS011;55836;49.858;6.756;2022-09-28T10:09:41;3.77;;;2.53;;
68680;SDS011;55836;49.858;6.756;2022-09-28T10:12:10;4.00;;;2.80;;
68680;SDS011;55836;49.858;6.756;2022-09-28T10:14:40;3.57;;;2.50;;
68680;SDS011;55836;49.858;6.756;2022-09-28T10:17:08;5.27;;;2.23;;
68680;SDS011;55836;49.858;6.756;2022-09-28T10:19:35;2.90;;;1.87;;
68680;SDS011;55836;49.858;6.756;2022-09-28T10:22:04;4.60;;;2.80;;
68680;SDS011;55836;49.858;6.756;2022-09-28T10:24:33;4.30;;;2.00;;
68680;SDS011;55836;49.858;6.756;2022-09-28T10:27:02;4.10;;;1.80;;
68680;SDS011;55836;49.858;6.756;2022-09-28T10:29:31;5.23;;;2.57;;
68680;SDS011;55836;49.858;6.756;2022-09-28T10:31:59;2.17;;;1.97;;
68680;SDS011;55836;49.858;6.756;2022-09-28T10:34:26;4.57;;;1.80;;
68680;SDS011;55836;49.858;6.756;2022-09-28T10:36:56;1.93;;;1.60;;
68680;SDS011;55836;49.858;6.756;2022-09-28T10:39:34;2.17;;;1.80;;
68680;SDS011;55836;49.858;6.756;2022-09-28T10:42:02;3.93;;;2.00;;
68680;SDS011;55836;49.858;6.756;2022-09-28T10:44:31;4.00;;;2.13;;
68680;SDS011;55836;49.858;6.756;2022-09-28T10:47:02;2.90;;;2.10;;
68680;SDS011;55836;49.858;6.756;2022-09-28T10:49:30;4.73;;;2.50;;
68680;SDS011;55836;49.858;6.756;2022-09-28T10:52:03;2.00;;;1.70;;
68680;SDS011;55836;49.858;6.756;2022-09-28T10:54:32;3.20;;;2.13;;
68680;SDS011;55836;49.858;6.756;2022-09-28T10:56:58;5.17;;;2.37;;
68680;SDS011;55836;49.858;6.756;2022-09-28T11:01:58;2.50;;;1.90;;
68680;SDS011;55836;49.858;6.756;2022-09-28T11:04:28;3.33;;;1.83;;
68680;SDS011;55836;49.858;6.756;2022-09-28T11:06:55;4.50;;;2.03;;
68680;SDS011;55836;49.858;6.756;2022-09-28T11:11:51;2.00;;;1.80;;
68680;SDS011;55836;49.858;6.756;2022-09-28T11:14:25;5.27;;;1.73;;
68680;SDS011;55836;49.858;6.756;2022-09-28T11:17:13;4.37;;;1.90;;
68680;SDS011;55836;49.858;6.756;2022-09-28T11:19:38;2.33;;;2.13;;
68680;SDS011;55836;49.858;6.756;2022-09-28T11:22:48;4.57;;;1.80;;
68680;SDS011;55836;49.858;6.756;2022-09-28T11:27:39;3.03;;;1.73;;
68680;SDS011;55836;49.858;6.756;2022-09-28T11:30:16;5.27;;;1.90;;
68680;SDS011;55836;49.858;6.756;2022-09-28T11:32:45;3.57;;;2.00;;
68680;SDS011;55836;49.858;6.756;2022-09-28T11:45:53;2.33;;;1.67;;
68680;SDS011;55836;49.858;6.756;2022-09-28T11:48:26;4.10;;;1.87;;
68680;SDS011;55836;49.858;6.756;2022-09-28T11:50:54;1.90;;;1.50;;
68680;SDS011;55836;49.858;6.756;2022-09-28T11:53:26;2.60;;;1.90;;
68680;SDS011;55836;49.858;6.756;2022-09-28T11:55:58;2.23;;;1.63;;
68680;SDS011;55836;49.858;6.756;2022-09-28T11:58:31;3.40;;;1.50;;
68680;SDS011;55836;49.858;6.756;2022-09-28T12:01:13;4.37;;;1.93;;
68680;SDS011;55836;49.858;6.756;2022-09-28T12:03:41;6.03;;;2.10;;
68680;SDS011;55836;49.858;6.756;2022-09-28T12:06:14;3.17;;;1.63;;
68680;SDS011;55836;49.858;6.756;2022-09-28T12:08:45;2.73;;;1.77;;
68680;SDS011;55836;49.858;6.756;2022-09-28T12:13:48;3.97;;;1.70;;
68680;SDS011;55836;49.858;6.756;2022-09-28T12:16:29;3.27;;;1.47;;
68680;SDS011;55836;49.858;6.756;2022-09-28T12:21:52;5.37;;;1.87;;
68680;SDS011;55836;49.858;6.756;2022-09-28T12:24:22;2.00;;;1.60;;
68680;SDS011;55836;49.858;6.756;2022-09-28T12:26:54;2.93;;;1.77;;
68680;SDS011;55836;49.858;6.756;2022-09-28T12:29:22;5.50;;;2.10;;
68680;SDS011;55836;49.858;6.756;2022-09-28T12:34:20;1.93;;;1.73;;
68680;SDS011;55836;49.858;6.756;2022-09-28T12:36:50;3.03;;;1.53;;
68680;SDS011;55836;49.858;6.756;2022-09-28T12:44:32;2.63;;;1.90;;
68680;SDS011;55836;49.858;6.756;2022-09-28T12:49:53;4.37;;;1.90;;
68680;SDS011;55836;49.858;6.756;2022-09-28T12:57:45;3.43;;;1.70;;
68680;SDS011;55836;49.858;6.756;2022-09-28T13:10:46;2.10;;;1.77;;
68680;SDS011;55836;49.858;6.756;2022-09-28T13:16:08;5.00;;;1.57;;
68680;SDS011;55836;49.858;6.756;2022-09-28T13:18:57;3.40;;;1.70;;
68680;SDS011;55836;49.858;6.756;2022-09-28T13:23:59;2.93;;;1.83;;
68680;SDS011;55836;49.858;6.756;2022-09-28T13:26:27;3.40;;;2.00;;
68680;SDS011;55836;49.858;6.756;2022-09-28T13:28:57;2.27;;;1.50;;
68680;SDS011;55836;49.858;6.756;2022-09-28T13:31:27;2.27;;;1.60;;
68680;SDS011;55836;49.858;6.756;2022-09-28T13:33:55;5.33;;;1.60;;
68680;SDS011;55836;49.858;6.756;2022-09-28T13:38:58;3.87;;;2.10;;
68680;SDS011;55836;49.858;6.756;2022-09-28T13:41:46;6.43;;;1.93;;
68680;SDS011;55836;49.858;6.756;2022-09-28T13:54:13;2.07;;;1.50;;
68680;SDS011;55836;49.858;6.756;2022-09-28T14:01:38;2.47;;;1.50;;
68680;SDS011;55836;49.858;6.756;2022-09-28T14:04:10;5.97;;;1.70;;
68680;SDS011;55836;49.858;6.756;2022-09-28T14:06:36;2.93;;;1.50;;
68680;SDS011;55836;49.858;6.756;2022-09-28T14:11:39;4.60;;;3.97;;
68680;SDS011;55836;49.858;6.756;2022-09-28T14:16:35;3.90;;;1.37;;
68680;SDS011;55836;49.858;6.756;2022-09-28T14:29:33;4.60;;;1.53;;
68680;SDS011;55836;49.858;6.756;2022-09-28T14:34:35;4.03;;;1.50;;
68680;SDS011;55836;49.858;6.756;2022-09-28T14:37:03;3.03;;;1.30;;
68680;SDS011;55836;49.858;6.756;2022-09-28T14:39:49;4.43;;;1.53;;
68680;SDS011;55836;49.858;6.756;2022-09-28T14:42:34;2.97;;;1.30;;
68680;SDS011;55836;49.858;6.756;2022-09-28T14:50:28;2.60;;;1.40;;
68680;SDS011;55836;49.858;6.756;2022-09-28T14:52:56;3.30;;;2.30;;
68680;SDS011;55836;49.858;6.756;2022-09-28T14:55:40;3.50;;;1.67;;
68680;SDS011;55836;49.858;6.756;2022-09-28T14:58:08;4.23;;;1.93;;
68680;SDS011;55836;49.858;6.756;2022-09-28T15:00:40;8.97;;;5.50;;
68680;SDS011;55836;49.858;6.756;2022-09-28T15:03:08;4.73;;;2.60;;
68680;SDS011;55836;49.858;6.756;2022-09-28T15:05:42;5.20;;;1.93;;
68680;SDS011;55836;49.858;6.756;2022-09-28T15:08:11;4.73;;;1.80;;
68680;SDS011;55836;49.858;6.756;2022-09-28T15:10:47;3.13;;;1.80;;
68680;SDS011;55836;49.858;6.756;2022-09-28T15:13:21;4.40;;;1.67;;
68680;SDS011;55836;49.858;6.756;2022-09-28T15:15:50;8.57;;;2.63;;
68680;SDS011;55836;49.858;6.756;2022-09-28T15:18:27;3.40;;;2.33;;
68680;SDS011;55836;49.858;6.756;2022-09-28T15:20:57;4.40;;;2.23;;
68680;SDS011;55836;49.858;6.756;2022-09-28T15:25:50;5.53;;;3.00;;
68680;SDS011;55836;49.858;6.756;2022-09-28T15:28:17;5.20;;;2.33;;
68680;SDS011;55836;49.858;6.756;2022-09-28T15:30:46;3.50;;;2.00;;
68680;SDS011;55836;49.858;6.756;2022-09-28T15:33:24;3.60;;;2.27;;
68680;SDS011;55836;49.858;6.756;2022-09-28T15:36:19;2.53;;;1.93;;
68680;SDS011;55836;49.858;6.756;2022-09-28T15:38:49;5.37;;;2.27;;
68680;SDS011;55836;49.858;6.756;2022-09-28T15:41:16;3.57;;;1.80;;
68680;SDS011;55836;49.858;6.756;2022-09-28T15:43:42;5.33;;;2.40;;
68680;SDS011;55836;49.858;6.756;2022-09-28T15:46:17;7.37;;;3.67;;
68680;SDS011;55836;49.858;6.756;2022-09-28T15:48:54;9.37;;;5.07;;
68680;SDS011;55836;49.858;6.756;2022-09-28T15:51:23;9.60;;;5.40;;
68680;SDS011;55836;49.858;6.756;2022-09-28T15:54:03;7.13;;;2.27;;
68680;SDS011;55836;49.858;6.756;2022-09-28T15:56:35;4.50;;;2.20;;
68680;SDS011;55836;49.858;6.756;2022-09-28T16:01:41;6.93;;;2.90;;
68680;SDS011;55836;49.858;6.756;2022-09-28T16:12:22;4.40;;;2.40;;
68680;SDS011;55836;49.858;6.756;2022-09-28T16:14:52;3.33;;;2.07;;
68680;SDS011;55836;49.858;6.756;2022-09-28T16:17:26;4.60;;;2.33;;
68680;SDS011;55836;49.858;6.756;2022-09-28T16:19:57;4.00;;;1.90;;
68680;SDS011;55836;49.858;6.756;2022-09-28T16:22:25;3.30;;;1.90;;
68680;SDS011;55836;49.858;6.756;2022-09-28T16:24:58;3.57;;;2.07;;
68680;SDS011;55836;49.858;6.756;2022-09-28T16:27:26;4.20;;;2.07;;
68680;SDS011;55836;49.858;6.756;2022-09-28T16:32:38;4.40;;;2.07;;
68680;SDS011;55836;49.858;6.756;2022-09-28T16:35:15;5.80;;;2.07;;
68680;SDS011;55836;49.858;6.756;2022-09-28T16:37:42;2.33;;;1.60;;
68680;SDS011;55836;49.858;6.756;2022-09-28T16:40:09;4.37;;;1.90;;
68680;SDS011;55836;49.858;6.756;2022-09-28T16:42:35;1.87;;;1.50;;
68680;SDS011;55836;49.858;6.756;2022-09-28T16:45:02;5.67;;;1.90;;
68680;SDS011;55836;49.858;6.756;2022-09-28T16:47:29;3.53;;;1.67;;
68680;SDS011;55836;49.858;6.756;2022-09-28T16:49:58;3.10;;;1.70;;
68680;SDS011;55836;49.858;6.756;2022-09-28T16:52:24;8.40;;;2.47;;
68680;SDS011;55836;49.858;6.756;2022-09-28T16:55:12;4.27;;;1.80;;
68680;SDS011;55836;49.858;6.756;2022-09-28T16:57:44;1.93;;;1.77;;
68680;SDS011;55836;49.858;6.756;2022-09-28T17:00:18;3.07;;;1.73;;
68680;SDS011;55836;49.858;6.756;2022-09-28T17:02:45;7.50;;;3.53;;
68680;SDS011;55836;49.858;6.756;2022-09-28T17:05:15;2.93;;;2.10;;
68680;SDS011;55836;49.858;6.756;2022-09-28T17:07:42;5.37;;;1.97;;
68680;SDS011;55836;49.858;6.756;2022-09-28T17:10:16;3.20;;;1.80;;
68680;SDS011;55836;49.858;6.756;2022-09-28T17:12:43;4.87;;;1.90;;
68680;SDS011;55836;49.858;6.756;2022-09-28T17:15:09;2.57;;;1.97;;
68680;SDS011;55836;49.858;6.756;2022-09-28T17:17:36;3.63;;;2.07;;
68680;SDS011;55836;49.858;6.756;2022-09-28T17:20:10;2.37;;;1.93;;
68680;SDS011;55836;49.858;6.756;2022-09-28T17:22:41;3.77;;;2.07;;
68680;SDS011;55836;49.858;6.756;2022-09-28T17:25:07;2.37;;;1.80;;
68680;SDS011;55836;49.858;6.756;2022-09-28T17:27:34;3.07;;;1.87;;
68680;SDS011;55836;49.858;6.756;2022-09-28T17:30:00;5.00;;;2.37;;
68680;SDS011;55836;49.858;6.756;2022-09-28T17:32:26;2.80;;;2.60;;
68680;SDS011;55836;49.858;6.756;2022-09-28T17:34:52;6.10;;;3.50;;
68680;SDS011;55836;49.858;6.756;2022-09-28T17:37:18;6.30;;;3.17;;
68680;SDS011;55836;49.858;6.756;2022-09-28T17:39:44;4.67;;;2.50;;
68680;SDS011;55836;49.858;6.756;2022-09-28T17:42:10;5.80;;;2.87;;
68680;SDS011;55836;49.858;6.756;2022-09-28T17:44:37;4.13;;;3.03;;
68680;SDS011;55836;49.858;6.756;2022-09-28T17:47:03;3.00;;;2.63;;
68680;SDS011;55836;49.858;6.756;2022-09-28T17:49:29;7.33;;;3.93;;
68680;SDS011;55836;49.858;6.756;2022-09-28T17:51:56;8.80;;;4.07;;
68680;SDS011;55836;49.858;6.756;2022-09-28T17:54:22;5.83;;;2.60;;
68680;SDS011;55836;49.858;6.756;2022-09-28T17:56:49;8.97;;;5.23;;
68680;SDS011;55836;49.858;6.756;2022-09-28T17:59:16;9.47;;;4.07;;
68680;SDS011;55836;49.858;6.756;2022-09-28T18:01:42;9.83;;;3.97;;